createdAt,value
2022-08-19T00:04:48.345Z,26.17
2022-08-19T00:09:41.020Z,26.16
2022-08-19T00:14:33.304Z,26.13
2022-08-19T00:19:25.689Z,26.13
2022-08-19T00:24:18.575Z,26.09
2022-08-19T00:29:11.254Z,26.09
2022-08-19T00:34:03.910Z,26.11
2022-08-19T00:38:56.575Z,26.12
2022-08-19T00:43:49.306Z,26.12
2022-08-19T00:48:41.815Z,26.06
2022-08-19T00:53:34.556Z,26.08
2022-08-19T00:58:27.347Z,26.08
2022-08-19T01:03:19.754Z,26.05
2022-08-19T01:08:12.811Z,26.04
2022-08-19T01:13:05.437Z,26.02
2022-08-19T01:17:57.888Z,25.99
2022-08-19T01:22:50.409Z,25.99
2022-08-19T01:27:43.741Z,25.96
2022-08-19T01:32:35.862Z,26.02
2022-08-19T01:37:28.521Z,26.01
2022-08-19T01:42:21.201Z,25.98
2022-08-19T01:47:13.816Z,25.93
2022-08-19T01:52:06.627Z,25.91
2022-08-19T01:56:59.169Z,25.9
2022-08-19T02:06:44.504Z,25.86
2022-08-19T02:11:37.050Z,25.82
2022-08-19T02:16:29.679Z,25.8
2022-08-19T02:21:22.355Z,25.82
2022-08-19T02:26:15.020Z,25.77
2022-08-19T02:31:07.539Z,25.75
2022-08-19T02:36:00.318Z,25.72
2022-08-19T02:40:52.869Z,25.71
2022-08-19T02:45:45.710Z,25.72
2022-08-19T02:50:38.133Z,25.71
2022-08-19T02:55:30.699Z,25.7
2022-08-19T03:00:23.160Z,25.67
2022-08-19T03:05:15.942Z,25.66
2022-08-19T03:10:08.357Z,25.64
2022-08-19T03:15:00.945Z,25.69
2022-08-19T03:19:53.670Z,25.66
2022-08-19T03:24:45.909Z,25.64
2022-08-19T03:29:43.381Z,25.63
2022-08-19T03:34:31.088Z,25.65
2022-08-19T03:39:23.707Z,25.64
2022-08-19T03:44:16.660Z,25.65
2022-08-19T03:49:09.183Z,25.63
2022-08-19T03:54:01.815Z,25.65
2022-08-19T03:58:54.713Z,25.65
2022-08-19T04:03:46.913Z,25.61
2022-08-19T04:08:39.488Z,25.62
2022-08-19T04:13:32.215Z,25.63
2022-08-19T04:18:24.838Z,25.62
2022-08-19T04:23:17.634Z,25.6
2022-08-19T04:28:10.553Z,25.6
2022-08-19T04:33:03.092Z,25.6
2022-08-19T04:37:55.654Z,25.61
2022-08-19T04:42:48.523Z,25.59
2022-08-19T04:47:47.322Z,25.15
2022-08-19T04:52:32.698Z,24.75
2022-08-19T04:57:25.131Z,24.74
2022-08-19T05:02:17.794Z,24.62
2022-08-19T05:07:10.406Z,24.81
2022-08-19T05:12:02.538Z,24.79
2022-08-19T05:17:06.525Z,24.62
2022-08-19T05:21:47.710Z,24.65
2022-08-19T05:26:39.981Z,24.57
2022-08-19T05:31:32.317Z,24.62
2022-08-19T05:36:24.855Z,24.62
2022-08-19T05:41:17.490Z,24.56
2022-08-19T05:46:10.339Z,24.73
2022-08-19T05:51:02.696Z,24.59
2022-08-19T05:55:55.229Z,24.57
2022-08-19T06:00:47.665Z,24.55
2022-08-19T06:05:42.374Z,24.57
2022-08-19T06:10:32.998Z,24.73
2022-08-19T06:15:25.297Z,24.8
2022-08-19T06:20:18.764Z,24.69
2022-08-19T06:25:10.113Z,24.63
2022-08-19T06:30:03.000Z,24.64
2022-08-19T06:34:55.000Z,24.47
2022-08-19T06:39:47.616Z,24.41
2022-08-19T06:44:43.005Z,24.52
2022-08-19T06:49:32.682Z,24.42
2022-08-19T06:54:25.327Z,24.43
2022-08-19T06:59:17.738Z,24.44
2022-08-19T07:04:11.980Z,24.5
2022-08-19T07:09:02.667Z,24.6
2022-08-19T07:13:55.389Z,24.59
2022-08-19T07:18:48.018Z,24.57
2022-08-19T07:23:40.417Z,24.54
2022-08-19T07:28:33.189Z,24.61
2022-08-19T07:33:27.877Z,24.55
2022-08-19T07:38:18.361Z,24.45
2022-08-19T07:43:14.003Z,24.21
2022-08-19T07:48:04.067Z,24.32
2022-08-19T07:52:56.216Z,24.4
2022-08-19T07:57:48.907Z,24.39
2022-08-19T08:02:40.842Z,24.34
2022-08-19T08:12:33.984Z,24.75
2022-08-19T08:17:30.934Z,24.85
2022-08-19T08:22:11.411Z,24.87
2022-08-19T08:27:04.110Z,24.83
2022-08-19T08:31:58.686Z,24.83
2022-08-19T08:36:49.292Z,24.82
2022-08-19T08:41:41.851Z,24.87
2022-08-19T08:46:34.637Z,24.87
2022-08-19T08:51:29.132Z,24.86
2022-08-19T08:56:19.925Z,24.83
2022-08-19T09:01:13.043Z,24.89
2022-08-19T09:06:05.688Z,24.85
2022-08-19T09:10:58.241Z,24.87
2022-08-19T09:15:51.008Z,24.85
2022-08-19T09:20:43.472Z,24.8
2022-08-19T09:25:36.042Z,24.78
2022-08-19T09:30:28.766Z,24.77
2022-08-19T09:35:21.337Z,24.74
2022-08-19T09:40:14.276Z,24.66
2022-08-19T09:45:10.309Z,24.6
2022-08-19T09:50:01.242Z,24.56
2022-08-19T09:54:53.484Z,24.57
2022-08-19T09:59:46.451Z,24.67
2022-08-19T10:04:38.973Z,24.65
2022-08-19T10:09:34.674Z,24.68
2022-08-19T10:14:24.382Z,24.76
2022-08-19T10:19:16.676Z,24.6
2022-08-19T10:24:09.406Z,24.62
2022-08-19T10:29:01.708Z,24.67
2022-08-19T10:33:54.414Z,24.73
2022-08-19T10:38:49.167Z,24.83
2022-08-19T10:43:39.340Z,25.01
2022-08-19T10:48:31.914Z,24.85
2022-08-19T10:53:26.575Z,24.93
2022-08-19T10:58:18.814Z,24.92
2022-08-19T11:03:11.380Z,24.72
2022-08-19T11:08:03.929Z,24.92
2022-08-19T11:12:56.492Z,24.85
2022-08-19T11:17:49.352Z,24.95
2022-08-19T11:22:42.157Z,24.99
2022-08-19T11:27:34.531Z,25
2022-08-19T11:32:27.007Z,24.96
2022-08-19T11:37:19.446Z,24.98
2022-08-19T11:42:11.602Z,25
2022-08-19T11:47:08.667Z,24.93
2022-08-19T11:51:56.759Z,24.88
2022-08-19T11:56:49.396Z,24.89
2022-08-19T12:01:42.146Z,24.85
2022-08-19T12:06:34.640Z,24.84
2022-08-19T12:11:27.112Z,24.85
2022-08-19T12:16:19.830Z,24.87
2022-08-19T12:21:12.218Z,24.86
2022-08-19T12:26:04.882Z,24.79
2022-08-19T12:30:57.343Z,24.8
2022-08-19T12:35:49.814Z,24.75
2022-08-19T12:40:42.772Z,24.84
2022-08-19T12:45:35.537Z,24.82
2022-08-19T12:50:28.548Z,24.86
2022-08-19T12:55:21.121Z,24.88
2022-08-19T13:00:13.963Z,24.91
2022-08-19T13:05:06.477Z,24.94
2022-08-19T13:09:59.301Z,24.84
2022-08-19T13:14:51.826Z,24.87
2022-08-19T13:19:44.638Z,24.92
2022-08-19T13:24:37.099Z,24.99
2022-08-19T13:29:29.805Z,24.94
2022-08-19T13:34:22.536Z,24.89
2022-08-19T13:39:15.090Z,24.91
2022-08-19T13:44:07.934Z,25.01
2022-08-19T13:49:00.408Z,25.01
2022-08-19T13:53:52.863Z,25.04
2022-08-19T13:58:45.596Z,25.07
2022-08-19T14:03:38.159Z,25.09
2022-08-19T14:08:30.696Z,25.04
2022-08-19T14:18:16.154Z,25.07
2022-08-19T14:23:08.760Z,25.11
2022-08-19T14:28:01.217Z,25.05
2022-08-19T14:32:53.894Z,25.11
2022-08-19T14:37:46.446Z,25.1
2022-08-19T14:42:42.963Z,25.1
2022-08-19T14:47:34.826Z,25.17
2022-08-19T14:52:27.275Z,25.16
2022-08-19T14:57:19.767Z,25.17
2022-08-19T15:02:20.338Z,25.19
2022-08-19T15:07:05.182Z,25.2
2022-08-19T15:11:57.715Z,25.22
2022-08-19T15:16:50.527Z,25.21
2022-08-19T15:21:43.376Z,25.27
2022-08-19T15:26:36.269Z,25.29
2022-08-19T15:31:29.140Z,25.26
2022-08-19T15:36:21.598Z,25.28
2022-08-19T15:41:13.973Z,25.23
2022-08-19T15:46:06.622Z,25.18
2022-08-19T15:50:59.288Z,25.14
2022-08-19T15:55:51.599Z,25.16
2022-08-19T16:00:44.311Z,25.14
2022-08-19T16:05:36.746Z,25.2
2022-08-19T16:10:29.508Z,25.23
2022-08-19T16:15:22.148Z,25.24
2022-08-19T16:20:14.663Z,25.27
2022-08-19T16:25:07.556Z,25.27
2022-08-19T16:30:00.120Z,25.28
2022-08-19T16:34:52.534Z,25.29
2022-08-19T16:39:44.942Z,25.32
2022-08-19T16:44:37.810Z,25.31
2022-08-19T16:49:52.565Z,25.38
2022-08-19T16:54:25.638Z,25.52
2022-08-19T16:59:17.305Z,25.49
2022-08-19T17:04:09.655Z,25.46
2022-08-19T17:09:02.743Z,25.43
2022-08-19T17:13:55.383Z,25.48
2022-08-19T17:18:47.715Z,25.54
2022-08-19T17:23:42.555Z,25.59
2022-08-19T17:28:32.961Z,25.64
2022-08-19T17:33:25.492Z,25.66
2022-08-19T17:38:18.288Z,25.68
2022-08-19T17:43:10.953Z,25.67
2022-08-19T17:48:03.710Z,25.67
2022-08-19T17:52:56.668Z,25.68
2022-08-19T17:57:49.187Z,25.61
2022-08-19T18:02:42.052Z,25.61
2022-08-19T18:07:34.539Z,25.53
2022-08-19T18:12:26.909Z,25.54
2022-08-19T18:17:19.676Z,25.55
2022-08-19T18:22:12.207Z,25.5
2022-08-19T18:27:04.764Z,25.53
2022-08-19T18:31:57.283Z,25.5
2022-08-19T18:36:53.650Z,25.47
2022-08-19T18:41:42.662Z,25.46
2022-08-19T18:46:36.719Z,25.44
2022-08-19T18:51:28.501Z,25.43
2022-08-19T18:56:20.058Z,25.44
2022-08-19T19:01:12.673Z,25.43
2022-08-19T19:06:05.204Z,25.42
2022-08-19T19:10:57.875Z,25.42
2022-08-19T19:15:50.587Z,25.37
2022-08-19T19:20:43.083Z,25.35
2022-08-19T19:25:44.909Z,25.38
2022-08-19T19:30:28.411Z,25.38
2022-08-19T19:35:20.953Z,25.36
2022-08-19T19:40:13.504Z,25.35
2022-08-19T19:45:05.885Z,25.28
2022-08-19T19:54:51.161Z,25.33
2022-08-19T20:04:36.736Z,25.33
2022-08-19T20:09:43.828Z,25.37
2022-08-19T20:14:22.218Z,25.38
2022-08-19T20:19:14.696Z,25.35
2022-08-19T20:24:09.699Z,25.28
2022-08-19T20:29:04.201Z,25.26
2022-08-19T20:33:52.500Z,25.26
2022-08-19T20:38:45.133Z,25.24
2022-08-19T20:43:37.874Z,25.24
2022-08-19T20:48:30.277Z,25.25
2022-08-19T20:53:23.020Z,25.23
2022-08-19T20:58:15.647Z,25.28
2022-08-19T21:03:08.501Z,25.3
2022-08-19T21:08:00.645Z,25.23
2022-08-19T21:12:53.399Z,25.32
2022-08-19T21:17:46.090Z,25.34
2022-08-19T21:22:38.672Z,25.31
2022-08-19T21:27:30.902Z,25.27
2022-08-19T21:32:23.607Z,25.26
2022-08-19T21:37:18.966Z,25.3
2022-08-19T21:42:08.899Z,25.32
2022-08-19T21:47:01.559Z,25.28
2022-08-19T21:51:54.233Z,25.32
2022-08-19T21:56:46.551Z,25.23
2022-08-19T22:01:39.254Z,25.21
2022-08-19T22:06:31.652Z,25.2
2022-08-19T22:11:24.275Z,25.22
2022-08-19T22:16:16.876Z,25.21
2022-08-19T22:21:12.070Z,25.21
2022-08-19T22:26:06.370Z,25.18
2022-08-19T22:30:58.096Z,25.16
2022-08-19T22:35:50.686Z,25.16
2022-08-19T22:40:43.488Z,25.2
2022-08-19T22:45:35.841Z,25.18
2022-08-19T22:50:28.385Z,25.18
2022-08-19T22:55:20.722Z,25.16
2022-08-19T23:00:13.417Z,25.16
2022-08-19T23:05:05.934Z,25.18
2022-08-19T23:09:58.342Z,25.11
2022-08-19T23:14:50.793Z,25.12
2022-08-19T23:19:43.263Z,25.1
2022-08-19T23:24:35.910Z,25.13
2022-08-19T23:29:28.344Z,25.09
2022-08-19T23:34:21.074Z,25.02
2022-08-19T23:39:13.649Z,25.02
2022-08-19T23:44:14.481Z,25.04
2022-08-19T23:49:01.884Z,25.02
2022-08-19T23:53:54.294Z,24.99
2022-08-19T23:58:46.685Z,24.97
